Terminal Aerodrome Forecast
Issued by NWS

Home | Current Version | Previous Version | Graphics & Text | Print | Product List | Glossary On
Versions: 1 2 3 4 5 6 7 8 9 10 11 12 13 14 15 16
649
FTUS43 KABR 020530
TAFPIR
TAF
KPIR 020530Z 0206/0306 VRB05KT P6SM SKC
     FM021500 28008KT P6SM BKN200
     FM022100 VRB05KT P6SM -RA OVC050
     FM030300 VRB05KT P6SM BKN200=

USA.gov is the U.S. government's official web portal to all federal, state and local government web resources and services.